sensor_id;sensor_type;location;lat;lon;timestamp;pressure;altitude;pressure_sealevel;temperature;humidity
79586;BME280;69054;50.866;4.636;2023-04-06T00:00:48;101420.22;;;-0.57;90.05
79586;BME280;69054;50.866;4.636;2023-04-06T00:03:14;101423.22;;;-0.49;89.70
79586;BME280;69054;50.866;4.636;2023-04-06T00:05:39;101420.53;;;-0.49;89.85
79586;BME280;69054;50.866;4.636;2023-04-06T00:08:05;101420.00;;;-0.41;90.00
79586;BME280;69054;50.866;4.636;2023-04-06T00:10:31;101407.22;;;-0.38;89.08
79586;BME280;69054;50.866;4.636;2023-04-06T00:12:58;101403.88;;;-0.41;89.39
79586;BME280;69054;50.866;4.636;2023-04-06T00:15:25;101413.88;;;-0.43;89.18
79586;BME280;69054;50.866;4.636;2023-04-06T00:17:51;101406.38;;;-0.51;89.45
79586;BME280;69054;50.866;4.636;2023-04-06T00:20:17;101404.53;;;-0.50;89.67
79586;BME280;69054;50.866;4.636;2023-04-06T00:22:43;101389.81;;;-0.45;89.31
79586;BME280;69054;50.866;4.636;2023-04-06T00:25:09;101392.72;;;-0.48;89.63
79586;BME280;69054;50.866;4.636;2023-04-06T00:27:35;101391.88;;;-0.48;89.65
79586;BME280;69054;50.866;4.636;2023-04-06T00:30:02;101385.50;;;-0.47;89.85
79586;BME280;69054;50.866;4.636;2023-04-06T00:32:28;101387.13;;;-0.45;90.41
79586;BME280;69054;50.866;4.636;2023-04-06T00:34:53;101388.53;;;-0.39;90.16
79586;BME280;69054;50.866;4.636;2023-04-06T00:37:19;101390.78;;;-0.33;90.40
79586;BME280;69054;50.866;4.636;2023-04-06T00:39:44;101386.47;;;-0.23;89.57
79586;BME280;69054;50.866;4.636;2023-04-06T00:42:14;101387.59;;;-0.14;89.53
79586;BME280;69054;50.866;4.636;2023-04-06T00:44:41;101368.44;;;-0.09;89.06
79586;BME280;69054;50.866;4.636;2023-04-06T00:47:07;101370.81;;;-0.05;89.07
79586;BME280;69054;50.866;4.636;2023-04-06T00:49:33;101372.31;;;-0.01;88.78
79586;BME280;69054;50.866;4.636;2023-04-06T00:51:58;101360.25;;;0.05;88.43
79586;BME280;69054;50.866;4.636;2023-04-06T00:54:25;101359.06;;;0.09;88.13
79586;BME280;69054;50.866;4.636;2023-04-06T00:56:52;101362.25;;;0.14;87.93
79586;BME280;69054;50.866;4.636;2023-04-06T00:59:17;101365.56;;;0.18;88.25
79586;BME280;69054;50.866;4.636;2023-04-06T01:01:43;101362.63;;;0.21;88.28
79586;BME280;69054;50.866;4.636;2023-04-06T01:04:08;101358.88;;;0.24;88.22
79586;BME280;69054;50.866;4.636;2023-04-06T01:06:33;101355.72;;;0.30;88.27
79586;BME280;69054;50.866;4.636;2023-04-06T01:08:59;101346.47;;;0.34;88.01
79586;BME280;69054;50.866;4.636;2023-04-06T01:11:24;101348.81;;;0.39;87.68
79586;BME280;69054;50.866;4.636;2023-04-06T01:13:51;101356.28;;;0.46;87.39
79586;BME280;69054;50.866;4.636;2023-04-06T01:16:17;101348.72;;;0.51;87.39
79586;BME280;69054;50.866;4.636;2023-04-06T01:18:42;101342.91;;;0.58;87.27
79586;BME280;69054;50.866;4.636;2023-04-06T01:21:08;101341.66;;;0.62;87.29
79586;BME280;69054;50.866;4.636;2023-04-06T01:23:35;101341.19;;;0.68;87.00
79586;BME280;69054;50.866;4.636;2023-04-06T01:26:00;101337.31;;;0.72;86.73
79586;BME280;69054;50.866;4.636;2023-04-06T01:28:26;101334.38;;;0.75;86.23
79586;BME280;69054;50.866;4.636;2023-04-06T01:30:51;101327.66;;;0.81;86.64
79586;BME280;69054;50.866;4.636;2023-04-06T01:33:17;101320.31;;;0.83;86.38
79586;BME280;69054;50.866;4.636;2023-04-06T01:35:42;101322.53;;;0.89;86.37
79586;BME280;69054;50.866;4.636;2023-04-06T01:38:07;101326.84;;;0.92;85.91
79586;BME280;69054;50.866;4.636;2023-04-06T01:40:33;101313.13;;;0.95;86.01
79586;BME280;69054;50.866;4.636;2023-04-06T01:42:59;101312.88;;;0.98;85.85
79586;BME280;69054;50.866;4.636;2023-04-06T01:45:25;101316.31;;;1.00;85.70
79586;BME280;69054;50.866;4.636;2023-04-06T01:47:50;101312.53;;;1.02;85.49
79586;BME280;69054;50.866;4.636;2023-04-06T01:50:15;101314.97;;;1.05;84.90
79586;BME280;69054;50.866;4.636;2023-04-06T01:52:41;101312.16;;;1.07;84.40
79586;BME280;69054;50.866;4.636;2023-04-06T01:55:06;101307.66;;;1.08;84.51
79586;BME280;69054;50.866;4.636;2023-04-06T01:57:32;101309.34;;;1.09;84.41
79586;BME280;69054;50.866;4.636;2023-04-06T02:00:00;101311.91;;;1.10;84.77
79586;BME280;69054;50.866;4.636;2023-04-06T02:02:25;101303.84;;;1.10;84.68
79586;BME280;69054;50.866;4.636;2023-04-06T02:04:50;101303.97;;;1.09;84.80
79586;BME280;69054;50.866;4.636;2023-04-06T02:07:16;101304.22;;;1.05;84.57
79586;BME280;69054;50.866;4.636;2023-04-06T02:09:41;101299.91;;;1.03;84.78
79586;BME280;69054;50.866;4.636;2023-04-06T02:12:07;101293.81;;;1.01;85.02
79586;BME280;69054;50.866;4.636;2023-04-06T02:14:32;101292.09;;;1.00;85.05
79586;BME280;69054;50.866;4.636;2023-04-06T02:16:57;101290.28;;;1.00;84.43
79586;BME280;69054;50.866;4.636;2023-04-06T02:19:26;101291.97;;;1.01;83.77
79586;BME280;69054;50.866;4.636;2023-04-06T02:21:51;101287.47;;;1.02;83.89
79586;BME280;69054;50.866;4.636;2023-04-06T02:24:16;101285.72;;;1.01;84.18
79586;BME280;69054;50.866;4.636;2023-04-06T02:26:42;101278.63;;;1.00;84.08
79586;BME280;69054;50.866;4.636;2023-04-06T02:29:07;101279.50;;;1.00;83.97
79586;BME280;69054;50.866;4.636;2023-04-06T02:31:33;101278.63;;;1.00;83.71
79586;BME280;69054;50.866;4.636;2023-04-06T02:33:58;101267.84;;;1.00;83.89
79586;BME280;69054;50.866;4.636;2023-04-06T02:36:26;101272.53;;;0.98;83.41
79586;BME280;69054;50.866;4.636;2023-04-06T02:38:52;101266.66;;;0.93;83.12
79586;BME280;69054;50.866;4.636;2023-04-06T02:41:17;101270.56;;;0.88;83.48
79586;BME280;69054;50.866;4.636;2023-04-06T02:43:42;101260.28;;;0.82;83.62
79586;BME280;69054;50.866;4.636;2023-04-06T02:46:08;101265.91;;;0.79;84.35
79586;BME280;69054;50.866;4.636;2023-04-06T02:48:33;101267.97;;;0.76;84.49
79586;BME280;69054;50.866;4.636;2023-04-06T02:51:02;101259.03;;;0.75;84.54
79586;BME280;69054;50.866;4.636;2023-04-06T02:53:27;101265.50;;;0.73;84.69
79586;BME280;69054;50.866;4.636;2023-04-06T02:55:54;101260.38;;;0.69;85.03
79586;BME280;69054;50.866;4.636;2023-04-06T02:58:21;101255.13;;;0.68;85.08
79586;BME280;69054;50.866;4.636;2023-04-06T03:00:46;101261.50;;;0.67;85.02
79586;BME280;69054;50.866;4.636;2023-04-06T03:03:11;101257.81;;;0.68;84.93
79586;BME280;69054;50.866;4.636;2023-04-06T03:05:38;101255.00;;;0.69;84.81
79586;BME280;69054;50.866;4.636;2023-04-06T03:08:03;101251.47;;;0.69;85.40
79586;BME280;69054;50.866;4.636;2023-04-06T03:10:29;101246.31;;;0.66;85.21
79586;BME280;69054;50.866;4.636;2023-04-06T03:12:54;101245.34;;;0.67;85.22
79586;BME280;69054;50.866;4.636;2023-04-06T03:15:19;101242.66;;;0.67;84.15
79586;BME280;69054;50.866;4.636;2023-04-06T03:17:45;101254.63;;;0.63;84.79
79586;BME280;69054;50.866;4.636;2023-04-06T03:20:10;101246.91;;;0.58;85.23
79586;BME280;69054;50.866;4.636;2023-04-06T03:22:36;101246.53;;;0.51;85.13
79586;BME280;69054;50.866;4.636;2023-04-06T03:25:01;101243.94;;;0.50;84.85
79586;BME280;69054;50.866;4.636;2023-04-06T03:27:26;101235.75;;;0.51;85.21
79586;BME280;69054;50.866;4.636;2023-04-06T03:29:52;101247.88;;;0.57;84.55
79586;BME280;69054;50.866;4.636;2023-04-06T03:32:17;101240.44;;;0.61;84.67
79586;BME280;69054;50.866;4.636;2023-04-06T03:34:42;101232.13;;;0.64;85.16
79586;BME280;69054;50.866;4.636;2023-04-06T03:37:08;101235.78;;;0.63;85.65
79586;BME280;69054;50.866;4.636;2023-04-06T03:39:33;101233.94;;;0.63;85.49
79586;BME280;69054;50.866;4.636;2023-04-06T03:41:58;101231.38;;;0.62;85.64
79586;BME280;69054;50.866;4.636;2023-04-06T03:44:24;101228.81;;;0.60;85.61
79586;BME280;69054;50.866;4.636;2023-04-06T03:46:49;101225.75;;;0.65;84.91
79586;BME280;69054;50.866;4.636;2023-04-06T03:49:15;101230.78;;;0.69;84.28
79586;BME280;69054;50.866;4.636;2023-04-06T03:51:40;101224.06;;;0.75;84.42
79586;BME280;69054;50.866;4.636;2023-04-06T03:54:06;101225.44;;;0.81;84.70
79586;BME280;69054;50.866;4.636;2023-04-06T03:56:31;101226.03;;;0.84;84.78
79586;BME280;69054;50.866;4.636;2023-04-06T03:58:57;101218.47;;;0.90;85.03
79586;BME280;69054;50.866;4.636;2023-04-06T04:01:22;101221.88;;;0.92;84.30
79586;BME280;69054;50.866;4.636;2023-04-06T04:03:47;101222.72;;;0.92;83.81
79586;BME280;69054;50.866;4.636;2023-04-06T04:06:13;101226.16;;;0.94;83.53
79586;BME280;69054;50.866;4.636;2023-04-06T04:08:38;101228.63;;;0.97;83.17
79586;BME280;69054;50.866;4.636;2023-04-06T04:11:03;101226.53;;;1.01;83.30
79586;BME280;69054;50.866;4.636;2023-04-06T04:13:29;101232.63;;;1.03;83.13
79586;BME280;69054;50.866;4.636;2023-04-06T04:15:55;101234.34;;;1.04;82.81
79586;BME280;69054;50.866;4.636;2023-04-06T04:18:21;101229.94;;;1.03;81.94
79586;BME280;69054;50.866;4.636;2023-04-06T04:20:47;101229.81;;;1.04;81.74
79586;BME280;69054;50.866;4.636;2023-04-06T04:23:12;101233.38;;;1.05;81.72
79586;BME280;69054;50.866;4.636;2023-04-06T04:25:37;101235.09;;;1.06;81.91
79586;BME280;69054;50.866;4.636;2023-04-06T04:28:03;101229.94;;;1.03;82.84
79586;BME280;69054;50.866;4.636;2023-04-06T04:30:28;101231.66;;;1.04;83.54
79586;BME280;69054;50.866;4.636;2023-04-06T04:32:54;101232.50;;;1.04;83.42
79586;BME280;69054;50.866;4.636;2023-04-06T04:35:19;101237.88;;;1.04;83.37
79586;BME280;69054;50.866;4.636;2023-04-06T04:37:46;101245.25;;;1.02;82.83
79586;BME280;69054;50.866;4.636;2023-04-06T04:40:11;101241.47;;;1.05;82.37
79586;BME280;69054;50.866;4.636;2023-04-06T04:42:37;101236.78;;;1.07;82.10
79586;BME280;69054;50.866;4.636;2023-04-06T04:45:02;101225.78;;;1.10;81.86
79586;BME280;69054;50.866;4.636;2023-04-06T04:47:28;101230.06;;;1.13;82.26
79586;BME280;69054;50.866;4.636;2023-04-06T04:49:56;101227.00;;;1.17;81.96
79586;BME280;69054;50.866;4.636;2023-04-06T04:52:21;101222.09;;;1.22;80.55
79586;BME280;69054;50.866;4.636;2023-04-06T04:54:47;101232.16;;;1.32;80.48
79586;BME280;69054;50.866;4.636;2023-04-06T04:57:12;101226.25;;;1.38;80.88
79586;BME280;69054;50.866;4.636;2023-04-06T04:59:38;101231.84;;;1.46;80.92
79586;BME280;69054;50.866;4.636;2023-04-06T05:02:03;101225.72;;;1.55;79.93
79586;BME280;69054;50.866;4.636;2023-04-06T05:04:29;101234.88;;;1.64;79.37
79586;BME280;69054;50.866;4.636;2023-04-06T05:07:05;101232.25;;;1.74;79.20
79586;BME280;69054;50.866;4.636;2023-04-06T05:09:30;101239.84;;;1.80;79.00
79586;BME280;69054;50.866;4.636;2023-04-06T05:11:56;101239.47;;;1.85;78.78
79586;BME280;69054;50.866;4.636;2023-04-06T05:14:22;101234.56;;;1.90;78.17
79586;BME280;69054;50.866;4.636;2023-04-06T05:16:47;101228.78;;;1.94;77.99
79586;BME280;69054;50.866;4.636;2023-04-06T05:19:13;101239.16;;;1.99;78.86
79586;BME280;69054;50.866;4.636;2023-04-06T05:21:38;101236.09;;;2.04;79.36
79586;BME280;69054;50.866;4.636;2023-04-06T05:24:03;101237.53;;;2.08;79.52
79586;BME280;69054;50.866;4.636;2023-04-06T05:26:29;101243.53;;;2.11;78.93
79586;BME280;69054;50.866;4.636;2023-04-06T05:28:54;101236.06;;;2.15;79.26
79586;BME280;69054;50.866;4.636;2023-04-06T05:31:20;101229.38;;;2.19;79.51
79586;BME280;69054;50.866;4.636;2023-04-06T05:33:46;101237.84;;;2.26;79.73
79586;BME280;69054;50.866;4.636;2023-04-06T05:36:11;101240.00;;;2.32;79.32
79586;BME280;69054;50.866;4.636;2023-04-06T05:38:37;101233.94;;;2.40;79.16
79586;BME280;69054;50.866;4.636;2023-04-06T05:41:02;101238.56;;;2.49;78.56
79586;BME280;69054;50.866;4.636;2023-04-06T05:43:27;101231.50;;;2.58;78.40
79586;BME280;69054;50.866;4.636;2023-04-06T05:45:56;101229.59;;;2.70;77.90
79586;BME280;69054;50.866;4.636;2023-04-06T05:48:21;101236.78;;;2.90;76.19
79586;BME280;69054;50.866;4.636;2023-04-06T05:50:50;101236.75;;;3.11;74.13
79586;BME280;69054;50.866;4.636;2023-04-06T05:53:16;101230.28;;;3.33;72.34
79586;BME280;69054;50.866;4.636;2023-04-06T05:55:41;101233.75;;;3.55;70.37
79586;BME280;69054;50.866;4.636;2023-04-06T05:58:07;101236.50;;;3.75;70.02
79586;BME280;69054;50.866;4.636;2023-04-06T06:00:32;101232.22;;;3.91;69.25
79586;BME280;69054;50.866;4.636;2023-04-06T06:02:57;101235.66;;;4.03;69.07
79586;BME280;69054;50.866;4.636;2023-04-06T06:05:23;101234.50;;;4.16;68.30
79586;BME280;69054;50.866;4.636;2023-04-06T06:07:49;101234.09;;;4.30;67.09
79586;BME280;69054;50.866;4.636;2023-04-06T06:10:14;101238.34;;;4.42;67.87
79586;BME280;69054;50.866;4.636;2023-04-06T06:12:40;101228.22;;;4.54;66.40
79586;BME280;69054;50.866;4.636;2023-04-06T06:15:06;101227.19;;;4.65;66.14
79586;BME280;69054;50.866;4.636;2023-04-06T06:17:31;101229.72;;;4.76;65.58
79586;BME280;69054;50.866;4.636;2023-04-06T06:19:56;101228.84;;;4.86;66.08
79586;BME280;69054;50.866;4.636;2023-04-06T06:22:22;101233.50;;;4.93;65.82
79586;BME280;69054;50.866;4.636;2023-04-06T06:24:47;101233.50;;;5.03;65.39
79586;BME280;69054;50.866;4.636;2023-04-06T06:27:13;101232.03;;;5.09;64.95
79586;BME280;69054;50.866;4.636;2023-04-06T06:29:38;101235.00;;;5.15;64.84
79586;BME280;69054;50.866;4.636;2023-04-06T06:32:04;101229.44;;;5.17;65.48
79586;BME280;69054;50.866;4.636;2023-04-06T06:34:29;101235.66;;;5.27;64.50
79586;BME280;69054;50.866;4.636;2023-04-06T06:36:55;101231.22;;;5.36;64.56
79586;BME280;69054;50.866;4.636;2023-04-06T06:39:21;101233.47;;;5.41;64.81
79586;BME280;69054;50.866;4.636;2023-04-06T06:41:46;101234.00;;;5.44;64.41
79586;BME280;69054;50.866;4.636;2023-04-06T06:44:11;101235.72;;;5.45;65.45
79586;BME280;69054;50.866;4.636;2023-04-06T06:46:37;101231.84;;;5.48;65.16
79586;BME280;69054;50.866;4.636;2023-04-06T06:49:02;101235.41;;;5.48;65.76
79586;BME280;69054;50.866;4.636;2023-04-06T06:51:28;101224.56;;;5.48;64.95
79586;BME280;69054;50.866;4.636;2023-04-06T06:53:54;101232.41;;;5.51;65.51
79586;BME280;69054;50.866;4.636;2023-04-06T06:56:19;101239.06;;;5.57;64.63
79586;BME280;69054;50.866;4.636;2023-04-06T06:58:45;101231.03;;;5.65;66.15
79586;BME280;69054;50.866;4.636;2023-04-06T07:01:11;101236.53;;;5.74;65.61
79586;BME280;69054;50.866;4.636;2023-04-06T07:03:37;101236.78;;;5.80;66.59
79586;BME280;69054;50.866;4.636;2023-04-06T07:06:02;101238.72;;;5.88;66.20
79586;BME280;69054;50.866;4.636;2023-04-06T07:08:28;101234.69;;;5.92;65.55
79586;BME280;69054;50.866;4.636;2023-04-06T07:10:56;101232.31;;;5.89;66.98
79586;BME280;69054;50.866;4.636;2023-04-06T07:13:22;101237.00;;;5.87;67.90
79586;BME280;69054;50.866;4.636;2023-04-06T07:15:49;101231.19;;;5.82;68.24
79586;BME280;69054;50.866;4.636;2023-04-06T07:18:16;101233.34;;;5.78;70.40
79586;BME280;69054;50.866;4.636;2023-04-06T07:20:41;101233.59;;;5.67;70.15
79586;BME280;69054;50.866;4.636;2023-04-06T07:23:06;101229.63;;;5.61;71.56
79586;BME280;69054;50.866;4.636;2023-04-06T07:25:32;101230.22;;;5.55;73.36
79586;BME280;69054;50.866;4.636;2023-04-06T07:27:58;101231.53;;;5.51;72.86
79586;BME280;69054;50.866;4.636;2023-04-06T07:30:23;101227.13;;;5.50;73.81
79586;BME280;69054;50.866;4.636;2023-04-06T07:32:51;101227.31;;;5.39;73.74
79586;BME280;69054;50.866;4.636;2023-04-06T07:35:17;101230.47;;;5.34;75.72
79586;BME280;69054;50.866;4.636;2023-04-06T07:37:42;101230.63;;;5.32;76.67
79586;BME280;69054;50.866;4.636;2023-04-06T07:40:08;101227.53;;;5.27;76.08
79586;BME280;69054;50.866;4.636;2023-04-06T07:42:33;101230.69;;;5.23;76.94
79586;BME280;69054;50.866;4.636;2023-04-06T07:44:59;101229.81;;;5.22;77.64
79586;BME280;69054;50.866;4.636;2023-04-06T07:47:24;101239.22;;;5.28;78.12
79586;BME280;69054;50.866;4.636;2023-04-06T07:49:50;101227.22;;;5.30;78.20
79586;BME280;69054;50.866;4.636;2023-04-06T07:52:15;101235.75;;;5.36;78.59
79586;BME280;69054;50.866;4.636;2023-04-06T07:54:41;101231.00;;;5.47;77.53
79586;BME280;69054;50.866;4.636;2023-04-06T07:57:07;101227.66;;;5.54;78.83
79586;BME280;69054;50.866;4.636;2023-04-06T07:59:32;101226.75;;;5.63;79.13
79586;BME280;69054;50.866;4.636;2023-04-06T08:01:58;101229.94;;;5.76;78.37
79586;BME280;69054;50.866;4.636;2023-04-06T08:04:23;101231.72;;;5.85;79.13
79586;BME280;69054;50.866;4.636;2023-04-06T08:06:48;101230.44;;;5.90;77.76
79586;BME280;69054;50.866;4.636;2023-04-06T08:09:14;101223.44;;;5.87;77.89
79586;BME280;69054;50.866;4.636;2023-04-06T08:11:39;101224.31;;;5.88;78.01
79586;BME280;69054;50.866;4.636;2023-04-06T08:14:05;101225.47;;;5.85;78.26
79586;BME280;69054;50.866;4.636;2023-04-06T08:16:31;101222.91;;;5.83;79.57
79586;BME280;69054;50.866;4.636;2023-04-06T08:18:56;101226.56;;;5.92;80.45
79586;BME280;69054;50.866;4.636;2023-04-06T08:21:21;101225.09;;;5.98;79.45
79586;BME280;69054;50.866;4.636;2023-04-06T08:23:47;101228.91;;;6.05;80.13
79586;BME280;69054;50.866;4.636;2023-04-06T08:26:12;101231.31;;;6.08;80.57
79586;BME280;69054;50.866;4.636;2023-04-06T08:28:38;101229.63;;;6.07;81.75
79586;BME280;69054;50.866;4.636;2023-04-06T08:31:04;101225.34;;;6.04;81.61
79586;BME280;69054;50.866;4.636;2023-04-06T08:33:30;101230.22;;;6.01;82.28
79586;BME280;69054;50.866;4.636;2023-04-06T08:35:56;101231.63;;;6.05;82.87
79586;BME280;69054;50.866;4.636;2023-04-06T08:38:21;101234.13;;;6.16;83.06
79586;BME280;69054;50.866;4.636;2023-04-06T08:40:47;101233.16;;;6.26;82.85
79586;BME280;69054;50.866;4.636;2023-04-06T08:43:16;101228.97;;;6.31;81.24
79586;BME280;69054;50.866;4.636;2023-04-06T08:45:45;101232.59;;;6.40;82.45
79586;BME280;69054;50.866;4.636;2023-04-06T08:48:12;101229.50;;;6.53;82.16
79586;BME280;69054;50.866;4.636;2023-04-06T08:50:38;101233.16;;;6.70;81.65
79586;BME280;69054;50.866;4.636;2023-04-06T08:53:05;101223.38;;;6.77;82.67
79586;BME280;69054;50.866;4.636;2023-04-06T08:55:31;101220.38;;;6.88;82.50
79586;BME280;69054;50.866;4.636;2023-04-06T08:57:56;101226.44;;;6.82;82.49
79586;BME280;69054;50.866;4.636;2023-04-06T09:00:25;101229.28;;;6.72;82.47
79586;BME280;69054;50.866;4.636;2023-04-06T09:02:53;101230.13;;;6.73;83.71
79586;BME280;69054;50.866;4.636;2023-04-06T09:05:20;101225.53;;;6.73;81.97
79586;BME280;69054;50.866;4.636;2023-04-06T09:07:46;101233.28;;;6.60;82.17
79586;BME280;69054;50.866;4.636;2023-04-06T09:10:12;101221.19;;;6.54;82.46
79586;BME280;69054;50.866;4.636;2023-04-06T09:12:37;101228.63;;;6.52;82.48
79586;BME280;69054;50.866;4.636;2023-04-06T09:15:03;101232.81;;;6.65;84.03
79586;BME280;69054;50.866;4.636;2023-04-06T09:17:31;101229.06;;;6.66;83.26
79586;BME280;69054;50.866;4.636;2023-04-06T09:20:00;101230.75;;;6.67;83.48
79586;BME280;69054;50.866;4.636;2023-04-06T09:22:34;101220.66;;;6.77;83.86
79586;BME280;69054;50.866;4.636;2023-04-06T09:24:59;101230.88;;;6.83;83.00
79586;BME280;69054;50.866;4.636;2023-04-06T09:27:33;101225.53;;;7.00;83.93
79586;BME280;69054;50.866;4.636;2023-04-06T09:30:10;101223.03;;;7.06;83.07
79586;BME280;69054;50.866;4.636;2023-04-06T09:32:49;101223.81;;;6.99;81.89
79586;BME280;69054;50.866;4.636;2023-04-06T09:35:15;101224.41;;;6.84;83.14
79586;BME280;69054;50.866;4.636;2023-04-06T09:37:42;101216.66;;;6.89;83.29
79586;BME280;69054;50.866;4.636;2023-04-06T09:40:08;101213.97;;;6.98;83.94
79586;BME280;69054;50.866;4.636;2023-04-06T09:42:35;101212.38;;;7.13;84.71
79586;BME280;69054;50.866;4.636;2023-04-06T09:45:03;101208.94;;;7.11;83.76
79586;BME280;69054;50.866;4.636;2023-04-06T09:47:30;101218.72;;;7.30;83.66
79586;BME280;69054;50.866;4.636;2023-04-06T09:49:59;101206.63;;;7.24;82.26
79586;BME280;69054;50.866;4.636;2023-04-06T09:52:44;101205.69;;;7.42;80.96
79586;BME280;69054;50.866;4.636;2023-04-06T09:55:17;101211.47;;;7.47;82.83
79586;BME280;69054;50.866;4.636;2023-04-06T10:00:17;101200.84;;;7.27;80.70
79586;BME280;69054;50.866;4.636;2023-04-06T10:02:56;101204.41;;;7.20;82.44
79586;BME280;69054;50.866;4.636;2023-04-06T10:08:05;101192.19;;;7.24;81.37
79586;BME280;69054;50.866;4.636;2023-04-06T10:10:32;101197.63;;;7.24;82.27
79586;BME280;69054;50.866;4.636;2023-04-06T10:12:58;101182.63;;;7.12;81.53
79586;BME280;69054;50.866;4.636;2023-04-06T10:15:25;101197.34;;;7.01;81.84
79586;BME280;69054;50.866;4.636;2023-04-06T10:17:51;101190.56;;;7.05;82.95
79586;BME280;69054;50.866;4.636;2023-04-06T10:20:39;101201.84;;;7.18;81.13
79586;BME280;69054;50.866;4.636;2023-04-06T10:23:29;101189.91;;;7.11;81.90
79586;BME280;69054;50.866;4.636;2023-04-06T10:25:58;101192.31;;;7.14;82.46
79586;BME280;69054;50.866;4.636;2023-04-06T10:28:24;101186.34;;;7.10;83.72
79586;BME280;69054;50.866;4.636;2023-04-06T10:30:56;101184.81;;;7.08;82.99
79586;BME280;69054;50.866;4.636;2023-04-06T10:33:22;101168.00;;;7.13;81.93
79586;BME280;69054;50.866;4.636;2023-04-06T10:35:48;101193.13;;;7.06;82.72
79586;BME280;69054;50.866;4.636;2023-04-06T10:38:13;101171.22;;;7.08;82.09
79586;BME280;69054;50.866;4.636;2023-04-06T10:40:41;101182.47;;;7.13;82.22
79586;BME280;69054;50.866;4.636;2023-04-06T10:43:19;101180.53;;;7.05;81.69
79586;BME280;69054;50.866;4.636;2023-04-06T10:45:44;101159.69;;;7.14;82.55
79586;BME280;69054;50.866;4.636;2023-04-06T10:48:18;101161.03;;;7.10;81.29
79586;BME280;69054;50.866;4.636;2023-04-06T10:50:46;101174.94;;;7.07;82.74
79586;BME280;69054;50.866;4.636;2023-04-06T10:53:11;101175.00;;;7.15;83.77
79586;BME280;69054;50.866;4.636;2023-04-06T10:55:45;101175.84;;;7.16;83.16
79586;BME280;69054;50.866;4.636;2023-04-06T10:58:12;101173.28;;;7.14;82.56
79586;BME280;69054;50.866;4.636;2023-04-06T11:00:44;101168.06;;;7.21;82.36
79586;BME280;69054;50.866;4.636;2023-04-06T11:03:10;101170.47;;;7.32;83.46
79586;BME280;69054;50.866;4.636;2023-04-06T11:05:35;101170.97;;;7.36;84.89
79586;BME280;69054;50.866;4.636;2023-04-06T11:08:00;101161.13;;;7.43;83.28
79586;BME280;69054;50.866;4.636;2023-04-06T11:10:26;101159.63;;;7.49;83.66
79586;BME280;69054;50.866;4.636;2023-04-06T11:12:55;101161.84;;;7.45;84.34
79586;BME280;69054;50.866;4.636;2023-04-06T11:15:22;101156.41;;;7.45;84.07
79586;BME280;69054;50.866;4.636;2023-04-06T11:17:47;101154.97;;;7.24;83.63
79586;BME280;69054;50.866;4.636;2023-04-06T11:20:14;101156.13;;;7.14;83.55
79586;BME280;69054;50.866;4.636;2023-04-06T11:22:52;101151.75;;;7.21;84.29
79586;BME280;69054;50.866;4.636;2023-04-06T11:25:18;101148.88;;;7.22;84.24
79586;BME280;69054;50.866;4.636;2023-04-06T11:27:45;101144.44;;;7.29;82.96
79586;BME280;69054;50.866;4.636;2023-04-06T11:30:11;101142.75;;;7.28;84.30
79586;BME280;69054;50.866;4.636;2023-04-06T11:32:42;101143.75;;;7.19;83.49
79586;BME280;69054;50.866;4.636;2023-04-06T11:35:31;101137.94;;;7.14;83.52
79586;BME280;69054;50.866;4.636;2023-04-06T11:37:56;101135.53;;;7.03;83.81
79586;BME280;69054;50.866;4.636;2023-04-06T11:40:22;101130.78;;;7.05;84.08
79586;BME280;69054;50.866;4.636;2023-04-06T11:42:53;101134.72;;;7.10;83.60
79586;BME280;69054;50.866;4.636;2023-04-06T11:45:19;101134.94;;;7.25;84.25
79586;BME280;69054;50.866;4.636;2023-04-06T11:47:44;101134.94;;;7.34;83.66
79586;BME280;69054;50.866;4.636;2023-04-06T11:50:11;101131.41;;;7.33;84.41
79586;BME280;69054;50.866;4.636;2023-04-06T11:52:39;101122.03;;;7.19;82.34
79586;BME280;69054;50.866;4.636;2023-04-06T11:55:16;101117.59;;;7.18;83.01
79586;BME280;69054;50.866;4.636;2023-04-06T11:57:42;101120.47;;;7.25;84.60
79586;BME280;69054;50.866;4.636;2023-04-06T12:00:09;101117.31;;;7.38;83.98
79586;BME280;69054;50.866;4.636;2023-04-06T12:02:35;101109.16;;;7.46;82.61
79586;BME280;69054;50.866;4.636;2023-04-06T12:05:02;101114.06;;;7.42;82.88
79586;BME280;69054;50.866;4.636;2023-04-06T12:07:29;101115.78;;;7.52;83.36
79586;BME280;69054;50.866;4.636;2023-04-06T12:09:55;101117.47;;;7.44;83.06
79586;BME280;69054;50.866;4.636;2023-04-06T12:12:21;101111.69;;;7.39;82.37
79586;BME280;69054;50.866;4.636;2023-04-06T12:14:46;101116.28;;;7.39;84.05
79586;BME280;69054;50.866;4.636;2023-04-06T12:17:11;101108.13;;;7.39;82.90
79586;BME280;69054;50.866;4.636;2023-04-06T12:19:37;101109.16;;;7.38;83.85
79586;BME280;69054;50.866;4.636;2023-04-06T12:22:02;101109.16;;;7.46;84.08
79586;BME280;69054;50.866;4.636;2023-04-06T12:24:28;101101.34;;;7.59;83.06
79586;BME280;69054;50.866;4.636;2023-04-06T12:26:54;101104.09;;;7.68;83.70
79586;BME280;69054;50.866;4.636;2023-04-06T12:29:19;101096.59;;;7.70;82.66
79586;BME280;69054;50.866;4.636;2023-04-06T12:31:45;101091.66;;;7.65;82.11
79586;BME280;69054;50.866;4.636;2023-04-06T12:34:11;101092.69;;;7.72;83.48
79586;BME280;69054;50.866;4.636;2023-04-06T12:36:36;101094.06;;;7.85;82.59
79586;BME280;69054;50.866;4.636;2023-04-06T12:39:02;101082.13;;;7.86;83.31
79586;BME280;69054;50.866;4.636;2023-04-06T12:41:28;101101.38;;;7.76;82.84
79586;BME280;69054;50.866;4.636;2023-04-06T12:43:54;101089.81;;;7.74;82.94
79586;BME280;69054;50.866;4.636;2023-04-06T12:46:19;101082.66;;;7.81;84.05
79586;BME280;69054;50.866;4.636;2023-04-06T12:48:45;101084.19;;;7.92;82.27
79586;BME280;69054;50.866;4.636;2023-04-06T12:51:11;101080.78;;;7.81;83.20
79586;BME280;69054;50.866;4.636;2023-04-06T12:53:37;101072.78;;;7.72;83.55
79586;BME280;69054;50.866;4.636;2023-04-06T12:56:02;101070.94;;;7.80;84.64
79586;BME280;69054;50.866;4.636;2023-04-06T12:58:36;101078.91;;;7.82;84.36
79586;BME280;69054;50.866;4.636;2023-04-06T13:01:05;101080.28;;;7.86;85.81